Time;durP1;ratioP1;P1;durP2;ratioP2;P2;SDS_P1;SDS_P2;PMS_P1;PMS_P2;Temp;Humidity;BMP_temperature;BMP_pressure;BME280_temperature;BME280_humidity;BME280_pressure;Samples;Min_cycle;Max_cycle;Signal;HPM_P1;HPM_P2
2022/11/28 00:00:42;;;;;;;11.63;10.00;;;;;;;5.69;100.00;96590.03;5057852;28;20631;-60
2022/11/28 00:03:09;;;;;;;12.10;11.00;;;;;;;5.64;100.00;96576.41;5057853;28;20218;-60
2022/11/28 00:05:35;;;;;;;12.60;10.23;;;;;;;5.65;100.00;96568.44;5058424;28;20238;-59
2022/11/28 00:08:04;;;;;;;16.70;12.33;;;;;;;5.70;100.00;96571.56;5058316;28;20636;-60
2022/11/28 00:10:31;;;;;;;15.20;12.20;;;;;;;5.76;100.00;96575.50;5058837;28;20199;-60
2022/11/28 00:12:57;;;;;;;12.87;11.57;;;;;;;5.78;100.00;96569.19;5058219;28;20219;-61
2022/11/28 00:15:24;;;;;;;15.73;11.57;;;;;;;5.82;100.00;96572.41;5058131;28;20213;-61
2022/11/28 00:17:50;;;;;;;11.47;10.30;;;;;;;5.82;100.00;96573.25;5058774;28;20703;-60
2022/11/28 00:20:17;;;;;;;11.03;9.93;;;;;;;5.82;100.00;96569.78;5059546;28;20210;-60
2022/11/28 00:22:44;;;;;;;11.83;10.60;;;;;;;5.72;100.00;96569.66;5058613;28;20211;-60
2022/11/28 00:25:12;;;;;;;13.13;11.00;;;;;;;5.70;100.00;96561.09;5059916;28;20223;-60
2022/11/28 00:27:38;;;;;;;11.63;10.43;;;;;;;5.74;100.00;96562.50;5058713;28;20211;-61
2022/11/28 00:30:06;;;;;;;12.50;11.27;;;;;;;5.76;100.00;96546.66;5058673;28;20524;-59
2022/11/28 00:32:33;;;;;;;14.53;10.93;;;;;;;5.79;100.00;96544.63;5058103;28;20525;-60
2022/11/28 00:34:59;;;;;;;14.70;11.03;;;;;;;5.80;100.00;96537.59;5058746;28;20214;-60
2022/11/28 00:37:26;;;;;;;12.10;10.23;;;;;;;5.74;100.00;96531.00;5056930;28;20643;-60
2022/11/28 00:39:53;;;;;;;12.63;11.13;;;;;;;5.75;100.00;96532.69;5057219;28;20211;-60
2022/11/28 00:42:21;;;;;;;12.33;10.87;;;;;;;5.77;100.00;96524.72;5067094;28;20199;-60
2022/11/28 00:44:48;;;;;;;11.97;10.77;;;;;;;5.72;100.00;96532.09;5070194;28;20226;-61
2022/11/28 00:47:15;;;;;;;12.47;10.10;;;;;;;5.71;100.00;96530.41;5070545;28;20207;-61
2022/11/28 00:49:44;;;;;;;12.20;10.93;;;;;;;5.73;100.00;96532.00;5062868;28;20207;-60
2022/11/28 00:52:11;;;;;;;11.67;10.57;;;;;;;5.72;100.00;96527.69;5056706;28;20635;-61
2022/11/28 00:54:38;;;;;;;12.23;9.80;;;;;;;5.75;100.00;96527.44;5059532;28;20206;-61
2022/11/28 00:57:04;;;;;;;10.07;9.17;;;;;;;5.69;100.00;96532.31;5056433;28;20651;-60
2022/11/28 00:59:32;;;;;;;12.20;10.10;;;;;;;5.66;100.00;96528.16;5056960;28;20203;-60
2022/11/28 01:01:59;;;;;;;10.37;9.27;;;;;;;5.57;100.00;96528.00;5056640;28;20214;-60
2022/11/28 01:04:26;;;;;;;10.30;9.23;;;;;;;5.56;100.00;96528.97;5056782;28;20226;-60
2022/11/28 01:06:53;;;;;;;9.90;8.90;;;;;;;5.54;100.00;96531.69;5056319;28;20238;-60
2022/11/28 01:09:21;;;;;;;11.43;9.77;;;;;;;5.51;100.00;96535.38;5070945;28;20218;-59
2022/11/28 01:11:49;;;;;;;10.37;9.37;;;;;;;5.51;100.00;96530.16;5063076;28;20230;-60
2022/11/28 01:14:17;;;;;;;10.03;9.00;;;;;;;5.55;100.00;96528.13;5056650;28;20241;-60
2022/11/28 01:16:45;;;;;;;10.27;9.23;;;;;;;5.48;100.00;96537.41;5056013;28;20238;-61
2022/11/28 01:19:12;;;;;;;9.53;8.60;;;;;;;5.51;100.00;96532.75;5056213;28;20222;-61
2022/11/28 01:21:40;;;;;;;10.17;9.00;;;;;;;5.48;100.00;96537.41;5056081;28;20210;-61
2022/11/28 01:24:07;;;;;;;9.80;8.67;;;;;;;5.46;100.00;96526.16;5056339;28;20211;-60
2022/11/28 01:26:33;;;;;;;10.23;9.23;;;;;;;5.47;100.00;96531.31;5056068;28;20235;-60
2022/11/28 01:29:00;;;;;;;9.53;8.43;;;;;;;5.40;100.00;96532.72;5056029;28;20234;-60
2022/11/28 01:31:29;;;;;;;8.93;8.03;;;;;;;5.43;100.00;96531.66;5062452;28;20616;-60
2022/11/28 01:33:57;;;;;;;9.47;8.47;;;;;;;5.48;100.00;96524.28;5061097;28;20199;-60
2022/11/28 01:36:25;;;;;;;12.30;9.00;;;;;;;5.46;100.00;96524.38;5056135;28;20241;-60
2022/11/28 01:38:52;;;;;;;10.00;8.97;;;;;;;5.40;100.00;96517.00;5056383;28;20210;-60
2022/11/28 01:41:21;;;;;;;9.90;8.90;;;;;;;5.35;100.00;96520.91;5061478;28;20199;-61
2022/11/28 01:44:06;;;;;;;8.80;7.90;;;;;;;5.42;100.00;96525.56;5059411;28;20199;-60
2022/11/28 01:46:34;;;;;;;9.43;8.43;;;;;;;5.39;100.00;96520.56;5055638;28;20222;-61
2022/11/28 01:49:07;;;;;;;8.63;7.83;;;;;;;5.42;100.00;96530.81;5055398;28;20639;-61
2022/11/28 01:51:34;;;;;;;8.57;7.63;;;;;;;5.43;100.00;96522.00;5055377;28;20544;-60
2022/11/28 01:54:03;;;;;;;8.03;7.23;;;;;;;5.43;100.00;96510.69;5055900;28;20214;-60
2022/11/28 01:56:35;;;;;;;9.50;7.37;;;;;;;5.43;100.00;96515.91;5055350;28;20203;-60
2022/11/28 01:59:04;;;;;;;8.73;7.80;;;;;;;5.39;100.00;96517.09;5055637;28;20217;-60
2022/11/28 02:01:31;;;;;;;9.13;7.47;;;;;;;5.30;100.00;96509.94;5058210;28;20207;-61
2022/11/28 02:03:58;;;;;;;9.80;6.73;;;;;;;5.31;100.00;96506.38;5055525;28;20210;-61
2022/11/28 02:06:29;;;;;;;8.00;7.07;;;;;;;5.30;100.00;96509.94;5054868;28;20230;-60
2022/11/28 02:08:55;;;;;;;7.87;7.07;;;;;;;5.29;100.00;96503.00;5055649;28;20294;-61
2022/11/28 02:11:34;;;;;;;8.20;7.50;;;;;;;5.33;100.00;96501.81;5054802;28;20218;-60
2022/11/28 02:14:06;;;;;;;8.73;7.80;;;;;;;5.34;100.00;96514.00;5055316;28;20537;-60
2022/11/28 02:16:43;;;;;;;8.63;7.73;;;;;;;5.28;100.00;96517.09;5054820;28;20655;-60
2022/11/28 02:19:34;;;;;;;8.50;7.60;;;;;;;5.31;100.00;96514.22;5055267;28;20218;-61
2022/11/28 02:22:05;;;;;;;9.33;7.57;;;;;;;5.28;100.00;96520.50;5065604;28;20293;-60
2022/11/28 02:25:00;;;;;;;9.03;8.10;;;;;;;5.21;100.00;96505.38;5056790;28;20222;-60
2022/11/28 02:27:41;;;;;;;8.77;7.60;;;;;;;5.23;100.00;96508.72;5057885;28;20219;-60
2022/11/28 02:30:19;;;;;;;9.40;8.40;;;;;;;5.26;100.00;96504.06;5055050;28;20207;-59
2022/11/28 02:33:09;;;;;;;9.30;8.40;;;;;;;5.26;100.00;96498.00;5055060;28;20191;-60
2022/11/28 02:35:42;;;;;;;11.07;8.27;;;;;;;5.26;100.00;96484.88;5046554;28;21191;-60
2022/11/28 02:38:14;;;;;;;9.83;8.93;;;;;;;5.29;100.00;96484.66;5061346;28;20210;-60
2022/11/28 02:40:49;;;;;;;10.47;9.10;;;;;;;5.29;100.00;96476.78;5063729;28;20207;-60
2022/11/28 02:43:21;;;;;;;11.13;9.03;;;;;;;5.26;100.00;96471.78;5069651;28;20273;-60
2022/11/28 02:45:52;;;;;;;10.80;9.40;;;;;;;5.26;100.00;96477.03;5054490;28;20219;-61
2022/11/28 02:48:27;;;;;;;10.87;9.70;;;;;;;5.26;100.00;96466.53;5057507;28;20203;-60
2022/11/28 02:50:58;;;;;;;10.40;9.30;;;;;;;5.23;100.00;96464.97;5056775;28;20205;-60
2022/11/28 02:53:26;;;;;;;10.73;9.50;;;;;;;5.21;100.00;96452.94;5057010;28;20206;-60
2022/11/28 02:55:54;;;;;;;11.30;9.37;;;;;;;5.24;100.00;96463.19;5064317;28;20277;-60
2022/11/28 02:58:20;;;;;;;11.13;9.83;;;;;;;5.25;100.00;96459.59;5062916;28;20214;-61
2022/11/28 03:00:47;;;;;;;9.67;8.77;;;;;;;5.25;100.00;96454.38;5059511;28;20203;-61
2022/11/28 03:03:35;;;;;;;12.77;9.93;;;;;;;5.32;100.00;96452.94;5071325;28;20198;-60
2022/11/28 03:06:07;;;;;;;10.90;9.73;;;;;;;5.34;100.00;96461.56;5063078;28;20214;-60
2022/11/28 03:08:41;;;;;;;12.77;10.20;;;;;;;5.34;100.00;96451.91;5057443;28;20213;-61
2022/11/28 03:11:13;;;;;;;11.37;10.07;;;;;;;5.34;100.00;96451.91;5066194;28;20198;-62
2022/11/28 03:13:41;;;;;;;11.00;9.57;;;;;;;5.38;100.00;96439.41;5055952;28;20206;-61
2022/11/28 03:16:16;;;;;;;14.50;10.50;;;;;;;5.35;100.00;96450.13;5055715;28;20211;-61
2022/11/28 03:18:50;;;;;;;12.33;10.57;;;;;;;5.36;100.00;96446.53;5056249;28;20658;-61
2022/11/28 03:21:23;;;;;;;11.63;9.50;;;;;;;5.33;100.00;96442.38;5054693;28;20206;-60
2022/11/28 03:23:53;;;;;;;11.40;10.20;;;;;;;5.34;100.00;96445.81;5055495;28;20218;-60
2022/11/28 03:26:26;;;;;;;12.40;11.03;;;;;;;5.37;100.00;96445.59;5055133;28;20219;-60
2022/11/28 03:28:57;;;;;;;11.97;10.73;;;;;;;5.39;100.00;96446.28;5056196;28;20513;-61
2022/11/28 03:31:29;;;;;;;11.93;10.73;;;;;;;5.35;100.00;96445.69;5055699;28;20226;-60
2022/11/28 03:33:59;;;;;;;12.50;10.87;;;;;;;5.37;100.00;96437.72;5054619;28;20203;-60
2022/11/28 03:36:27;;;;;;;13.03;11.33;;;;;;;5.44;100.00;96428.44;5058759;28;20249;-61
2022/11/28 03:38:59;;;;;;;13.13;10.60;;;;;;;5.47;100.00;96425.59;5057610;28;20211;-61
2022/11/28 03:41:29;;;;;;;14.87;12.00;;;;;;;5.51;100.00;96421.78;5061351;28;20206;-60
2022/11/28 03:43:58;;;;;;;14.33;11.47;;;;;;;5.52;100.00;96418.22;5069187;28;20222;-60
2022/11/28 03:46:31;;;;;;;12.23;10.93;;;;;;;5.45;100.00;96409.13;5057025;28;20305;-61
2022/11/28 03:49:02;;;;;;;13.07;11.67;;;;;;;5.52;100.00;96412.97;5053386;28;20211;-59
2022/11/28 03:51:32;;;;;;;12.73;10.57;;;;;;;5.55;100.00;96404.84;5053809;28;20214;-61
2022/11/28 03:54:02;;;;;;;11.90;10.70;;;;;;;5.49;100.00;96410.56;5054172;28;20587;-60
2022/11/28 03:56:34;;;;;;;12.47;10.50;;;;;;;5.49;100.00;96410.56;5054068;28;20199;-59
2022/11/28 03:59:04;;;;;;;11.50;10.30;;;;;;;5.47;100.00;96418.56;5058783;28;20203;-60
2022/11/28 04:01:34;;;;;;;12.53;9.97;;;;;;;5.48;100.00;96424.63;5061684;28;20248;-60
2022/11/28 04:04:10;;;;;;;13.53;11.33;;;;;;;5.44;100.00;96417.94;5058849;28;20199;-60
2022/11/28 04:06:43;;;;;;;14.10;10.33;;;;;;;5.52;100.00;96420.84;5057911;28;20231;-61
2022/11/28 04:09:15;;;;;;;12.40;11.10;;;;;;;5.55;100.00;96425.84;5057845;28;20214;-60
2022/11/28 04:11:45;;;;;;;11.63;10.43;;;;;;;5.55;100.00;96428.47;5057697;28;20202;-61
2022/11/28 04:14:14;;;;;;;12.87;10.67;;;;;;;5.56;100.00;96427.50;5057368;28;20207;-60
2022/11/28 04:16:45;;;;;;;12.07;10.87;;;;;;;5.51;100.00;96427.03;5057565;28;20216;-60
2022/11/28 04:19:16;;;;;;;11.83;10.63;;;;;;;5.56;100.00;96424.91;5057453;28;20203;-60
2022/11/28 04:21:46;;;;;;;10.90;9.77;;;;;;;5.53;100.00;96430.34;5057189;28;20207;-60
2022/11/28 04:24:16;;;;;;;11.80;10.53;;;;;;;5.49;100.00;96428.94;5057746;28;20541;-61
2022/11/28 04:26:47;;;;;;;10.93;9.83;;;;;;;5.48;100.00;96425.47;5057804;28;20234;-60
2022/11/28 04:29:15;;;;;;;13.07;11.27;;;;;;;5.47;100.00;96420.34;5059998;28;20214;-60
2022/11/28 04:31:42;;;;;;;12.43;11.13;;;;;;;5.46;100.00;96426.53;5067504;28;20294;-60
2022/11/28 04:34:14;;;;;;;11.23;10.13;;;;;;;5.48;100.00;96419.38;5065493;28;20211;-60
2022/11/28 04:36:43;;;;;;;11.20;10.03;;;;;;;5.50;100.00;96420.09;5056709;28;20694;-60
2022/11/28 04:39:13;;;;;;;11.33;10.20;;;;;;;5.49;100.00;96416.63;5065166;28;20226;-60
2022/11/28 04:41:41;;;;;;;11.17;10.07;;;;;;;5.53;100.00;96412.81;5066897;28;20217;-60
2022/11/28 04:44:15;;;;;;;11.23;10.13;;;;;;;5.52;100.00;96412.97;5058717;28;20655;-60
2022/11/28 04:46:43;;;;;;;10.47;9.47;;;;;;;5.49;100.00;96414.00;5069228;28;20226;-60
2022/11/28 04:49:10;;;;;;;10.77;9.77;;;;;;;5.49;100.00;96406.16;5065216;28;20202;-61
2022/11/28 04:51:43;;;;;;;11.17;9.93;;;;;;;5.51;100.00;96414.75;5065717;28;20203;-61
2022/11/28 04:54:12;;;;;;;11.00;9.87;;;;;;;5.51;100.00;96413.91;5066881;28;20211;-61
2022/11/28 04:56:42;;;;;;;10.87;9.77;;;;;;;5.49;100.00;96410.56;5066256;28;20234;-60
2022/11/28 04:59:09;;;;;;;10.67;9.13;;;;;;;5.49;100.00;96407.97;5065151;28;20207;-62
2022/11/28 05:01:37;;;;;;;10.57;9.47;;;;;;;5.47;100.00;96408.06;5087293;28;20199;-61
2022/11/28 05:04:04;;;;;;;10.03;9.07;;;;;;;5.51;100.00;96404.25;5077818;28;20644;-61
2022/11/28 05:06:33;;;;;;;10.23;8.67;;;;;;;5.51;100.00;96406.88;5070853;28;20238;-61
2022/11/28 05:09:01;;;;;;;10.40;9.40;;;;;;;5.55;100.00;96396.97;5061039;28;20548;-60
2022/11/28 05:11:29;;;;;;;12.13;9.37;;;;;;;5.57;100.00;96408.19;5056547;28;20203;-60
2022/11/28 05:13:55;;;;;;;10.63;9.13;;;;;;;5.55;100.00;96402.22;5056564;28;20210;-61
2022/11/28 05:16:22;;;;;;;14.33;9.90;;;;;;;5.52;100.00;96399.84;5055938;28;20631;-60
2022/11/28 05:18:49;;;;;;;10.47;8.40;;;;;;;5.55;100.00;96406.63;5056622;28;20217;-60
2022/11/28 05:21:16;;;;;;;12.57;10.07;;;;;;;5.59;100.00;96411.53;5055549;28;20632;-60
2022/11/28 05:23:44;;;;;;;12.37;11.07;;;;;;;5.57;100.00;96402.94;5056403;28;20222;-60
2022/11/28 05:26:14;;;;;;;12.93;10.00;;;;;;;5.56;100.00;96395.19;5056399;28;20217;-60
2022/11/28 05:28:43;;;;;;;10.50;8.80;;;;;;;5.62;100.00;96405.22;5056451;28;20207;-61
2022/11/28 05:31:11;;;;;;;9.37;7.70;;;;;;;5.64;100.00;96414.63;5055870;28;20215;-60
2022/11/28 05:33:38;;;;;;;8.90;8.00;;;;;;;5.62;100.00;96405.22;5056500;28;20203;-61
2022/11/28 05:36:06;;;;;;;8.43;7.53;;;;;;;5.55;100.00;96399.59;5070988;28;20578;-61
2022/11/28 05:38:33;;;;;;;8.80;8.00;;;;;;;5.55;100.00;96404.84;5061551;28;20624;-60
2022/11/28 05:41:00;;;;;;;9.20;8.30;;;;;;;5.59;100.00;96408.91;5071446;28;20199;-60
2022/11/28 05:43:28;;;;;;;8.23;7.43;;;;;;;5.56;100.00;96411.78;5072840;28;20217;-61
2022/11/28 05:45:55;;;;;;;8.60;7.57;;;;;;;5.50;100.00;96399.13;5055798;28;20246;-61
2022/11/28 05:48:22;;;;;;;7.90;7.10;;;;;;;5.49;100.00;96400.09;5055429;28;20223;-60
2022/11/28 05:50:49;;;;;;;9.10;8.20;;;;;;;5.51;100.00;96408.66;5055943;28;20218;-59
2022/11/28 05:53:17;;;;;;;8.47;7.67;;;;;;;5.49;100.00;96406.16;5055784;28;20308;-60
2022/11/28 05:55:43;;;;;;;8.80;7.67;;;;;;;5.48;100.00;96401.03;5055316;28;20211;-60
2022/11/28 05:58:10;;;;;;;8.97;8.07;;;;;;;5.48;100.00;96395.78;5055794;28;20213;-60
2022/11/28 06:00:39;;;;;;;8.07;7.37;;;;;;;5.53;100.00;96393.63;5056701;28;20211;-61
2022/11/28 06:03:05;;;;;;;9.87;7.27;;;;;;;5.55;100.00;96394.38;5056294;28;20222;-60
2022/11/28 06:05:32;;;;;;;8.20;7.40;;;;;;;5.50;100.00;96396.50;5055859;28;20223;-61
2022/11/28 06:07:59;;;;;;;8.60;7.63;;;;;;;5.54;100.00;96397.94;5056659;28;20781;-61
2022/11/28 06:10:25;;;;;;;7.97;7.17;;;;;;;5.49;100.00;96405.34;5056623;28;20612;-61
2022/11/28 06:12:52;;;;;;;8.40;6.87;;;;;;;5.50;100.00;96404.34;5058612;28;20198;-61
2022/11/28 06:15:19;;;;;;;7.97;7.27;;;;;;;5.50;100.00;96402.56;5055454;28;20222;-60
2022/11/28 06:17:47;;;;;;;7.90;6.77;;;;;;;5.48;100.00;96387.91;5060083;28;20198;-60
2022/11/28 06:20:14;;;;;;;7.20;6.47;;;;;;;5.48;100.00;96396.63;5058104;28;20207;-60
2022/11/28 06:22:40;;;;;;;7.50;6.80;;;;;;;5.45;100.00;96396.88;5061893;28;20225;-60
2022/11/28 06:25:07;;;;;;;6.43;5.83;;;;;;;5.41;100.00;96402.47;5055071;28;20207;-60
2022/11/28 06:27:34;;;;;;;10.10;6.40;;;;;;;5.33;100.00;96396.97;5054802;28;20223;-60
2022/11/28 06:30:00;;;;;;;7.37;6.67;;;;;;;5.35;100.00;96406.38;5062967;28;20213;-60
2022/11/28 06:32:27;;;;;;;7.43;6.73;;;;;;;5.30;100.00;96405.06;5057789;28;20199;-61
2022/11/28 06:34:55;;;;;;;7.50;6.57;;;;;;;5.33;100.00;96400.41;5057373;28;20203;-60
2022/11/28 06:37:21;;;;;;;8.13;6.33;;;;;;;5.30;100.00;96400.66;5058770;28;20230;-61
2022/11/28 06:39:48;;;;;;;8.77;6.80;;;;;;;5.31;100.00;96401.50;5059286;28;20217;-61
2022/11/28 06:42:15;;;;;;;7.10;6.40;;;;;;;5.30;100.00;96397.19;5064905;28;20206;-60
2022/11/28 06:44:41;;;;;;;7.73;6.40;;;;;;;5.34;100.00;96407.34;5055117;28;20211;-60
2022/11/28 06:47:08;;;;;;;7.60;6.80;;;;;;;5.34;100.00;96398.63;5055561;28;20237;-60
2022/11/28 06:49:35;;;;;;;7.87;7.03;;;;;;;5.38;100.00;96397.44;5055000;28;20529;-60
2022/11/28 06:52:03;;;;;;;7.33;6.73;;;;;;;5.42;100.00;96404.13;5057106;28;20624;-59
2022/11/28 06:54:30;;;;;;;7.63;6.90;;;;;;;5.46;100.00;96409.00;5058438;28;20202;-59
2022/11/28 06:56:56;;;;;;;7.27;6.33;;;;;;;5.47;100.00;96400.19;5065735;28;20202;-59
2022/11/28 06:59:23;;;;;;;6.70;5.97;;;;;;;5.48;100.00;96401.88;5063337;28;20211;-58
2022/11/28 07:01:50;;;;;;;6.33;5.73;;;;;;;5.51;100.00;96406.88;5054452;28;20217;-59
2022/11/28 07:04:17;;;;;;;7.87;6.10;;;;;;;5.44;100.00;96407.47;5055034;28;20211;-59
2022/11/28 07:06:44;;;;;;;7.80;5.83;;;;;;;5.48;100.00;96407.13;5054227;28;20316;-59
2022/11/28 07:09:12;;;;;;;6.60;6.00;;;;;;;5.49;100.00;96411.38;5054910;28;20241;-59
2022/11/28 07:11:41;;;;;;;7.30;6.33;;;;;;;5.49;100.00;96413.19;5054994;28;20294;-59
2022/11/28 07:14:09;;;;;;;7.80;6.70;;;;;;;5.47;100.00;96409.84;5055353;28;20269;-59
2022/11/28 07:16:35;;;;;;;6.50;5.77;;;;;;;5.53;100.00;96411.19;5055029;28;20214;-60
2022/11/28 07:19:02;;;;;;;6.77;6.17;;;;;;;5.53;100.00;96416.44;5058355;28;20207;-60
2022/11/28 07:21:31;;;;;;;7.80;6.10;;;;;;;5.52;100.00;96415.59;5053447;28;20682;-60
2022/11/28 07:23:58;;;;;;;6.93;6.30;;;;;;;5.51;100.00;96413.91;5054784;28;20211;-60
2022/11/28 07:26:26;;;;;;;9.43;5.80;;;;;;;5.53;100.00;96412.81;5054541;28;20199;-59
2022/11/28 07:28:54;;;;;;;5.50;5.00;;;;;;;5.49;100.00;96411.38;5057063;28;20229;-60
2022/11/28 07:31:25;;;;;;;7.33;5.57;;;;;;;5.51;100.00;96408.66;5066359;28;20585;-60
2022/11/28 07:33:52;;;;;;;6.97;5.53;;;;;;;5.42;100.00;96409.38;5057835;28;20627;-59
2022/11/28 07:36:20;;;;;;;8.67;6.13;;;;;;;5.48;100.00;96414.16;5057618;28;20242;-58
2022/11/28 07:38:47;;;;;;;6.13;5.53;;;;;;;5.53;100.00;96410.19;5065929;28;20217;-59
2022/11/28 07:41:14;;;;;;;7.93;5.73;;;;;;;5.49;100.00;96415.81;5074758;28;20195;-59
2022/11/28 07:43:45;;;;;;;7.17;5.37;;;;;;;5.52;100.00;96405.09;5059056;28;20207;-59
2022/11/28 07:46:13;;;;;;;6.00;4.90;;;;;;;5.55;100.00;96412.72;5058806;28;20202;-59
2022/11/28 07:48:40;;;;;;;5.60;5.10;;;;;;;5.61;100.00;96409.63;5058607;28;20249;-60
2022/11/28 07:51:08;;;;;;;4.87;4.30;;;;;;;5.64;100.00;96408.53;5061565;28;20623;-59
2022/11/28 07:53:34;;;;;;;7.13;4.83;;;;;;;5.69;100.00;96409.88;5060108;28;20207;-60
2022/11/28 07:56:05;;;;;;;6.23;5.30;;;;;;;5.74;100.00;96412.94;5067366;28;20206;-60
2022/11/28 07:58:32;;;;;;;7.27;5.70;;;;;;;5.82;100.00;96413.19;5070323;28;20257;-59
2022/11/28 08:01:00;;;;;;;8.07;5.40;;;;;;;5.81;100.00;96419.38;5064560;28;20199;-59
2022/11/28 08:03:26;;;;;;;5.50;5.00;;;;;;;5.86;100.00;96414.66;5059128;28;20218;-59
2022/11/28 08:05:53;;;;;;;7.03;5.40;;;;;;;5.86;100.00;96417.28;5065607;28;20891;-58
2022/11/28 08:08:20;;;;;;;6.07;5.40;;;;;;;5.91;100.00;96422.19;5062541;28;20234;-60
2022/11/28 08:10:47;;;;;;;6.67;5.47;;;;;;;5.99;100.00;96419.78;5070218;28;20202;-59
2022/11/28 08:13:14;;;;;;;7.00;5.37;;;;;;;6.03;100.00;96420.38;5057433;28;20213;-58
2022/11/28 08:15:41;;;;;;;7.70;5.47;;;;;;;6.07;100.00;96413.94;5061684;28;20198;-59
2022/11/28 08:18:08;;;;;;;8.73;5.87;;;;;;;6.13;100.00;96405.59;5069798;28;20199;-59
2022/11/28 08:20:36;;;;;;;6.20;5.60;;;;;;;6.16;100.00;96407.97;5062507;28;20258;-59
2022/11/28 08:23:03;;;;;;;6.97;5.33;;;;;;;6.18;100.00;96411.28;5081665;28;20214;-59
2022/11/28 08:25:30;;;;;;;6.50;5.80;;;;;;;6.21;100.00;96405.78;5071362;28;20213;-59
2022/11/28 08:27:56;;;;;;;8.30;6.17;;;;;;;6.21;100.00;96400.53;5074270;28;20668;-59
2022/11/28 08:30:23;;;;;;;5.97;5.37;;;;;;;6.27;100.00;96400.06;5072183;28;20635;-59
2022/11/28 08:32:50;;;;;;;7.03;6.33;;;;;;;6.32;100.00;96395.28;5058736;28;20540;-60
2022/11/28 08:35:18;;;;;;;8.60;6.27;;;;;;;6.34;100.00;96403.88;5057614;28;20230;-59
2022/11/28 08:37:45;;;;;;;9.37;7.13;;;;;;;6.37;100.00;96401.00;5057073;28;20263;-59
2022/11/28 08:40:12;;;;;;;7.87;7.07;;;;;;;6.45;100.00;96403.81;5063217;28;20198;-58
2022/11/28 08:42:39;;;;;;;8.63;7.43;;;;;;;6.53;100.00;96403.22;5066908;28;20196;-60
2022/11/28 08:45:07;;;;;;;10.10;7.13;;;;;;;6.57;100.00;96405.47;5058755;28;20206;-59
2022/11/28 08:47:33;;;;;;;9.03;7.37;;;;;;;6.59;100.00;96406.16;5074378;28;20223;-59
2022/11/28 08:49:59;;;;;;;7.97;7.20;;;;;;;6.61;100.00;96396.38;5074701;28;20211;-59
2022/11/28 08:52:27;;;;;;;9.53;7.07;;;;;;;6.67;100.00;96400.28;5081956;28;20254;-59
2022/11/28 08:54:54;;;;;;;11.90;7.47;;;;;;;6.67;100.00;96405.53;5079226;28;20206;-59
2022/11/28 08:57:21;;;;;;;10.37;7.53;;;;;;;6.70;100.00;96395.63;5059632;28;20644;-60
2022/11/28 08:59:47;;;;;;;12.20;7.50;;;;;;;6.76;100.00;96400.41;5059762;28;20199;-59
2022/11/28 09:02:13;;;;;;;10.40;8.30;;;;;;;6.75;100.00;96390.84;5068726;28;20207;-59
2022/11/28 09:04:41;;;;;;;10.03;8.03;;;;;;;6.86;100.00;96397.84;5058989;28;20299;-59
2022/11/28 09:07:08;;;;;;;9.87;8.80;;;;;;;6.91;100.00;96388.59;5067251;28;20198;-59
2022/11/28 09:09:35;;;;;;;12.07;8.90;;;;;;;6.94;100.00;96392.78;5076018;28;20218;-59
2022/11/28 09:12:02;;;;;;;9.57;8.43;;;;;;;7.00;100.00;96394.91;5063856;28;20202;-59
2022/11/28 09:14:28;;;;;;;9.43;8.53;;;;;;;7.06;100.00;96390.91;5061945;28;20203;-59
2022/11/28 09:16:55;;;;;;;10.80;8.40;;;;;;;7.07;100.00;96392.59;5056882;28;20290;-59
2022/11/28 09:19:21;;;;;;;13.37;8.70;;;;;;;7.11;100.00;96394.00;5056421;28;20624;-58
2022/11/28 09:21:48;;;;;;;9.90;8.27;;;;;;;7.16;100.00;96394.44;5056448;28;20199;-59
2022/11/28 09:24:15;;;;;;;10.57;9.03;;;;;;;7.15;100.00;96396.25;5059392;28;20663;-59
2022/11/28 09:26:43;;;;;;;10.77;7.60;;;;;;;7.17;100.00;96393.50;5057980;28;20209;-60
2022/11/28 09:29:10;;;;;;;10.50;8.70;;;;;;;7.15;100.00;96384.91;5069417;28;20249;-58
2022/11/28 09:31:36;;;;;;;8.60;7.73;;;;;;;7.14;100.00;96386.69;5057495;28;20544;-59
2022/11/28 09:34:03;;;;;;;9.53;7.77;;;;;;;7.18;100.00;96379.38;5062694;28;20218;-59
2022/11/28 09:36:31;;;;;;;7.67;6.97;;;;;;;7.21;100.00;96382.59;5055991;28;20325;-59
2022/11/28 09:38:59;;;;;;;8.43;7.37;;;;;;;7.28;100.00;96386.38;5060257;28;20201;-59
2022/11/28 09:41:36;;;;;;;8.53;7.60;;;;;;;7.35;100.00;96395.41;5058884;28;20203;-59
2022/11/28 09:44:09;;;;;;;8.80;7.90;;;;;;;7.42;100.00;96385.22;5056162;28;20207;-59
2022/11/28 09:46:37;;;;;;;11.20;8.20;;;;;;;7.46;100.00;96382.19;5055431;28;20643;-60
2022/11/28 09:49:10;;;;;;;9.30;8.33;;;;;;;7.53;100.00;96379.88;5055462;28;20685;-60
2022/11/28 09:51:44;;;;;;;10.73;7.97;;;;;;;7.58;100.00;96375.03;5061541;28;20222;-60
2022/11/28 09:54:13;;;;;;;8.80;7.60;;;;;;;7.61;100.00;96372.16;5058137;28;20211;-59
2022/11/28 09:56:40;;;;;;;14.73;8.23;;;;;;;7.65;100.00;96376.16;5055117;28;20544;-60
2022/11/28 09:59:15;;;;;;;12.33;8.73;;;;;;;7.71;100.00;96373.03;5055572;28;20208;-59
2022/11/28 10:01:46;;;;;;;8.63;7.73;;;;;;;7.76;100.00;96370.81;5056643;28;20202;-60
2022/11/28 10:04:18;;;;;;;11.57;7.50;;;;;;;7.81;100.00;96367.81;5056198;28;20233;-60
2022/11/28 10:06:49;;;;;;;9.17;8.17;;;;;;;7.84;100.00;96372.81;5057219;28;20206;-60
2022/11/28 10:09:26;;;;;;;8.90;7.57;;;;;;;7.87;100.00;96367.25;5061755;28;20225;-60
2022/11/28 10:12:01;;;;;;;11.33;9.03;;;;;;;7.93;100.00;96356.22;5060021;28;20206;-60
2022/11/28 10:14:53;;;;;;;13.10;8.30;;;;;;;7.99;100.00;96360.94;5065862;28;20191;-61
2022/11/28 10:17:29;;;;;;;12.97;8.53;;;;;;;8.07;100.00;96368.19;5044950;28;20199;-59
2022/11/28 10:20:01;;;;;;;8.87;7.97;;;;;;;8.11;100.00;96351.97;5065466;28;20198;-59
2022/11/28 10:22:36;;;;;;;10.93;8.13;;;;;;;8.15;100.00;96355.97;5074624;28;20297;-60
2022/11/28 10:25:07;;;;;;;9.93;8.07;;;;;;;8.22;100.00;96364.19;5056026;28;20217;-60
2022/11/28 10:27:35;;;;;;;11.80;8.80;;;;;;;8.35;100.00;96356.91;5057722;28;20213;-61
2022/11/28 10:30:06;;;;;;;10.37;9.07;;;;;;;8.45;100.00;96352.47;5056964;28;20293;-60
2022/11/28 10:32:38;;;;;;;13.07;9.43;;;;;;;8.51;100.00;96351.91;5059983;28;20205;-60
2022/11/28 10:35:06;;;;;;;12.97;8.80;;;;;;;8.55;100.00;96345.41;5058895;28;20325;-60
2022/11/28 10:37:36;;;;;;;12.37;8.97;;;;;;;8.65;100.00;96348.88;5072972;28;20206;-60
2022/11/28 10:40:16;;;;;;;9.50;8.50;;;;;;;8.68;100.00;96343.31;5068431;28;20213;-61
2022/11/28 10:42:47;;;;;;;12.17;8.67;;;;;;;8.76;100.00;96334.72;5078040;28;20602;-60
2022/11/28 10:45:21;;;;;;;10.77;8.00;;;;;;;8.86;100.00;96336.38;5070508;28;20210;-60
2022/11/28 10:48:00;;;;;;;10.80;8.53;;;;;;;9.00;100.00;96328.03;5077501;28;20270;-60
2022/11/28 10:50:32;;;;;;;9.00;8.07;;;;;;;9.11;100.00;96320.94;5067520;28;20260;-60
2022/11/28 10:53:00;;;;;;;10.87;8.37;;;;;;;9.23;100.00;96311.91;5063180;28;20241;-60
2022/11/28 10:55:35;;;;;;;12.43;7.87;;;;;;;9.32;100.00;96325.06;5060796;28;20264;-60
2022/11/28 10:58:06;;;;;;;9.50;8.50;;;;;;;9.36;100.00;96312.41;5070440;28;20650;-60
2022/11/28 11:00:35;;;;;;;14.47;9.10;;;;;;;9.39;100.00;96318.22;5056169;28;20534;-59
2022/11/28 11:03:04;;;;;;;11.80;9.00;;;;;;;9.49;99.46;96312.94;5058361;28;20207;-57
2022/11/28 11:05:32;;;;;;;18.27;13.40;;;;;;;9.60;98.25;96314.56;5057035;28;20211;-58
2022/11/28 11:08:03;;;;;;;14.37;11.03;;;;;;;9.69;98.60;96313.69;5054421;28;20226;-58
2022/11/28 11:10:36;;;;;;;9.93;8.17;;;;;;;9.65;95.45;96302.59;5057594;28;20226;-57
2022/11/28 11:13:13;;;;;;;8.70;7.90;;;;;;;9.72;97.25;96306.31;5054253;28;20202;-57
2022/11/28 11:15:41;;;;;;;11.40;8.33;;;;;;;9.71;96.28;96307.28;5056475;28;20214;-57
2022/11/28 11:18:22;;;;;;;12.97;8.63;;;;;;;9.74;94.84;96299.06;5056654;28;20211;-58
2022/11/28 11:20:50;;;;;;;10.43;7.93;;;;;;;9.80;95.44;96309.06;5054659;28;20202;-58
2022/11/28 11:23:18;;;;;;;9.03;8.10;;;;;;;9.87;96.19;96291.66;5054167;28;20221;-58
2022/11/28 11:25:48;;;;;;;10.00;8.00;;;;;;;9.94;95.96;96297.16;5054938;28;20211;-58
2022/11/28 11:28:27;;;;;;;12.50;8.40;;;;;;;9.93;97.36;96296.34;5069520;28;20233;-59
2022/11/28 11:31:03;;;;;;;10.27;8.07;;;;;;;10.00;96.93;96291.28;5081344;28;20206;-59
2022/11/28 11:33:34;;;;;;;11.33;8.20;;;;;;;10.02;96.59;96284.88;5073005;28;20199;-59
2022/11/28 11:36:05;;;;;;;9.63;8.13;;;;;;;10.02;95.08;96276.94;5057928;28;20532;-59